sensor_id;sensor_type;location;lat;lon;timestamp;P1;durP1;ratioP1;P2;durP2;ratioP2
21444;SDS011;10883;51.946;20.140;2023-06-10T00:01:13;11.40;;;9.55;;
21444;SDS011;10883;51.946;20.140;2023-06-10T00:03:38;12.55;;;10.15;;
21444;SDS011;10883;51.946;20.140;2023-06-10T00:06:06;15.75;;;9.93;;
21444;SDS011;10883;51.946;20.140;2023-06-10T00:08:32;13.73;;;11.10;;
21444;SDS011;10883;51.946;20.140;2023-06-10T00:10:58;13.60;;;9.88;;
21444;SDS011;10883;51.946;20.140;2023-06-10T00:13:24;12.63;;;10.50;;
21444;SDS011;10883;51.946;20.140;2023-06-10T00:15:50;13.10;;;9.70;;
21444;SDS011;10883;51.946;20.140;2023-06-10T00:18:16;12.30;;;9.65;;
21444;SDS011;10883;51.946;20.140;2023-06-10T00:20:42;11.82;;;10.02;;
21444;SDS011;10883;51.946;20.140;2023-06-10T00:23:08;13.25;;;10.20;;
21444;SDS011;10883;51.946;20.140;2023-06-10T00:25:34;14.30;;;10.30;;
21444;SDS011;10883;51.946;20.140;2023-06-10T00:28:00;12.13;;;9.75;;
21444;SDS011;10883;51.946;20.140;2023-06-10T00:30:26;11.57;;;9.57;;
21444;SDS011;10883;51.946;20.140;2023-06-10T00:32:52;11.90;;;10.25;;
21444;SDS011;10883;51.946;20.140;2023-06-10T00:35:18;12.25;;;10.45;;
21444;SDS011;10883;51.946;20.140;2023-06-10T00:37:44;11.30;;;10.13;;
21444;SDS011;10883;51.946;20.140;2023-06-10T00:40:10;16.00;;;10.38;;
21444;SDS011;10883;51.946;20.140;2023-06-10T00:42:36;12.55;;;9.90;;
21444;SDS011;10883;51.946;20.140;2023-06-10T00:45:02;10.75;;;9.65;;
21444;SDS011;10883;51.946;20.140;2023-06-10T00:47:29;10.43;;;9.32;;
21444;SDS011;10883;51.946;20.140;2023-06-10T00:49:55;11.57;;;10.13;;
21444;SDS011;10883;51.946;20.140;2023-06-10T00:52:21;10.88;;;8.82;;
21444;SDS011;10883;51.946;20.140;2023-06-10T00:54:50;12.88;;;9.73;;
21444;SDS011;10883;51.946;20.140;2023-06-10T00:57:17;13.55;;;9.70;;
21444;SDS011;10883;51.946;20.140;2023-06-10T00:59:44;12.10;;;10.15;;
21444;SDS011;10883;51.946;20.140;2023-06-10T01:02:13;14.15;;;9.80;;
21444;SDS011;10883;51.946;20.140;2023-06-10T01:04:39;15.23;;;10.35;;
21444;SDS011;10883;51.946;20.140;2023-06-10T01:10:04;12.35;;;9.80;;
21444;SDS011;10883;51.946;20.140;2023-06-10T01:15:05;10.55;;;9.10;;
21444;SDS011;10883;51.946;20.140;2023-06-10T01:17:32;14.65;;;10.55;;
21444;SDS011;10883;51.946;20.140;2023-06-10T01:19:58;11.75;;;9.48;;
21444;SDS011;10883;51.946;20.140;2023-06-10T01:22:25;13.98;;;10.35;;
21444;SDS011;10883;51.946;20.140;2023-06-10T01:24:53;11.68;;;9.55;;
21444;SDS011;10883;51.946;20.140;2023-06-10T01:27:23;11.27;;;10.13;;
21444;SDS011;10883;51.946;20.140;2023-06-10T01:29:54;13.55;;;9.63;;
21444;SDS011;10883;51.946;20.140;2023-06-10T01:32:37;13.77;;;10.40;;
21444;SDS011;10883;51.946;20.140;2023-06-10T01:35:08;13.30;;;10.57;;
21444;SDS011;10883;51.946;20.140;2023-06-10T01:37:34;18.90;;;10.23;;
21444;SDS011;10883;51.946;20.140;2023-06-10T01:40:03;13.13;;;10.63;;
21444;SDS011;10883;51.946;20.140;2023-06-10T01:42:31;15.50;;;11.02;;
21444;SDS011;10883;51.946;20.140;2023-06-10T01:44:57;12.25;;;10.30;;
21444;SDS011;10883;51.946;20.140;2023-06-10T01:47:23;12.88;;;10.27;;
21444;SDS011;10883;51.946;20.140;2023-06-10T01:49:49;14.70;;;10.20;;
21444;SDS011;10883;51.946;20.140;2023-06-10T01:52:15;11.57;;;9.98;;
21444;SDS011;10883;51.946;20.140;2023-06-10T01:54:41;15.85;;;10.70;;
21444;SDS011;10883;51.946;20.140;2023-06-10T01:57:07;16.48;;;10.98;;
21444;SDS011;10883;51.946;20.140;2023-06-10T01:59:33;16.80;;;10.48;;
21444;SDS011;10883;51.946;20.140;2023-06-10T02:01:59;12.93;;;10.40;;
21444;SDS011;10883;51.946;20.140;2023-06-10T02:04:25;17.30;;;11.10;;
21444;SDS011;10883;51.946;20.140;2023-06-10T02:06:50;14.40;;;11.52;;
21444;SDS011;10883;51.946;20.140;2023-06-10T02:09:16;14.40;;;10.38;;
21444;SDS011;10883;51.946;20.140;2023-06-10T02:11:43;11.52;;;10.32;;
21444;SDS011;10883;51.946;20.140;2023-06-10T02:14:09;13.25;;;11.20;;
21444;SDS011;10883;51.946;20.140;2023-06-10T02:16:35;15.43;;;11.05;;
21444;SDS011;10883;51.946;20.140;2023-06-10T02:19:01;21.30;;;11.30;;
21444;SDS011;10883;51.946;20.140;2023-06-10T02:21:30;14.63;;;10.40;;
21444;SDS011;10883;51.946;20.140;2023-06-10T02:23:56;13.18;;;9.90;;
21444;SDS011;10883;51.946;20.140;2023-06-10T02:26:22;14.23;;;10.02;;
21444;SDS011;10883;51.946;20.140;2023-06-10T02:28:50;13.80;;;9.88;;
21444;SDS011;10883;51.946;20.140;2023-06-10T02:31:17;13.45;;;9.18;;
21444;SDS011;10883;51.946;20.140;2023-06-10T02:33:43;13.63;;;8.68;;
21444;SDS011;10883;51.946;20.140;2023-06-10T02:36:09;13.52;;;8.65;;
21444;SDS011;10883;51.946;20.140;2023-06-10T02:38:38;11.48;;;8.00;;
21444;SDS011;10883;51.946;20.140;2023-06-10T02:41:05;10.35;;;7.88;;
21444;SDS011;10883;51.946;20.140;2023-06-10T02:43:31;10.02;;;7.28;;
21444;SDS011;10883;51.946;20.140;2023-06-10T02:45:57;12.48;;;7.75;;
21444;SDS011;10883;51.946;20.140;2023-06-10T02:48:26;10.52;;;7.28;;
21444;SDS011;10883;51.946;20.140;2023-06-10T02:50:52;15.93;;;6.72;;
21444;SDS011;10883;51.946;20.140;2023-06-10T02:53:18;7.18;;;6.22;;
21444;SDS011;10883;51.946;20.140;2023-06-10T02:55:44;9.90;;;7.05;;
21444;SDS011;10883;51.946;20.140;2023-06-10T02:58:10;10.93;;;5.97;;
21444;SDS011;10883;51.946;20.140;2023-06-10T03:00:36;6.95;;;5.60;;
21444;SDS011;10883;51.946;20.140;2023-06-10T03:03:02;7.68;;;5.38;;
21444;SDS011;10883;51.946;20.140;2023-06-10T03:05:30;10.02;;;5.55;;
21444;SDS011;10883;51.946;20.140;2023-06-10T03:07:55;11.40;;;6.72;;
21444;SDS011;10883;51.946;20.140;2023-06-10T03:10:21;7.80;;;5.45;;
21444;SDS011;10883;51.946;20.140;2023-06-10T03:12:47;15.18;;;5.95;;
21444;SDS011;10883;51.946;20.140;2023-06-10T03:15:13;12.23;;;5.90;;
21444;SDS011;10883;51.946;20.140;2023-06-10T03:17:39;8.02;;;5.45;;
21444;SDS011;10883;51.946;20.140;2023-06-10T03:20:05;7.25;;;4.90;;
21444;SDS011;10883;51.946;20.140;2023-06-10T03:22:34;10.32;;;4.90;;
21444;SDS011;10883;51.946;20.140;2023-06-10T03:25:00;8.25;;;5.30;;
21444;SDS011;10883;51.946;20.140;2023-06-10T03:27:25;8.45;;;5.05;;
21444;SDS011;10883;51.946;20.140;2023-06-10T03:29:51;8.60;;;4.68;;
21444;SDS011;10883;51.946;20.140;2023-06-10T03:32:17;8.02;;;5.07;;
21444;SDS011;10883;51.946;20.140;2023-06-10T03:34:43;10.70;;;5.72;;
21444;SDS011;10883;51.946;20.140;2023-06-10T03:37:10;9.30;;;4.80;;
21444;SDS011;10883;51.946;20.140;2023-06-10T03:39:36;8.63;;;5.35;;
21444;SDS011;10883;51.946;20.140;2023-06-10T03:42:01;7.82;;;4.63;;
21444;SDS011;10883;51.946;20.140;2023-06-10T03:44:27;8.45;;;4.68;;
21444;SDS011;10883;51.946;20.140;2023-06-10T03:46:54;5.75;;;4.43;;
21444;SDS011;10883;51.946;20.140;2023-06-10T03:49:20;8.80;;;5.15;;
21444;SDS011;10883;51.946;20.140;2023-06-10T03:51:46;10.25;;;4.15;;
21444;SDS011;10883;51.946;20.140;2023-06-10T03:54:11;9.95;;;4.95;;
21444;SDS011;10883;51.946;20.140;2023-06-10T03:56:37;9.65;;;5.07;;
21444;SDS011;10883;51.946;20.140;2023-06-10T03:59:04;7.28;;;4.80;;
21444;SDS011;10883;51.946;20.140;2023-06-10T04:01:30;13.10;;;4.57;;
21444;SDS011;10883;51.946;20.140;2023-06-10T04:03:56;6.60;;;4.32;;
21444;SDS011;10883;51.946;20.140;2023-06-10T04:06:22;10.65;;;4.88;;
21444;SDS011;10883;51.946;20.140;2023-06-10T04:08:53;6.70;;;4.97;;
21444;SDS011;10883;51.946;20.140;2023-06-10T04:11:21;8.25;;;4.93;;
21444;SDS011;10883;51.946;20.140;2023-06-10T04:13:46;8.82;;;4.85;;
21444;SDS011;10883;51.946;20.140;2023-06-10T04:16:14;9.63;;;4.25;;
21444;SDS011;10883;51.946;20.140;2023-06-10T04:18:40;10.18;;;4.65;;
21444;SDS011;10883;51.946;20.140;2023-06-10T04:21:07;8.23;;;4.88;;
21444;SDS011;10883;51.946;20.140;2023-06-10T04:23:34;13.25;;;5.05;;
21444;SDS011;10883;51.946;20.140;2023-06-10T04:26:02;10.20;;;4.88;;
21444;SDS011;10883;51.946;20.140;2023-06-10T04:28:28;9.55;;;4.22;;
21444;SDS011;10883;51.946;20.140;2023-06-10T04:30:53;16.60;;;4.38;;
21444;SDS011;10883;51.946;20.140;2023-06-10T04:33:19;11.02;;;5.03;;
21444;SDS011;10883;51.946;20.140;2023-06-10T04:35:45;7.07;;;4.93;;
21444;SDS011;10883;51.946;20.140;2023-06-10T04:38:12;7.97;;;4.43;;
21444;SDS011;10883;51.946;20.140;2023-06-10T04:40:39;13.35;;;5.10;;
21444;SDS011;10883;51.946;20.140;2023-06-10T04:43:05;11.48;;;5.68;;
21444;SDS011;10883;51.946;20.140;2023-06-10T04:45:31;9.20;;;4.45;;
21444;SDS011;10883;51.946;20.140;2023-06-10T04:47:56;6.88;;;4.50;;
21444;SDS011;10883;51.946;20.140;2023-06-10T04:50:23;6.72;;;4.13;;
21444;SDS011;10883;51.946;20.140;2023-06-10T04:52:49;10.98;;;5.13;;
21444;SDS011;10883;51.946;20.140;2023-06-10T04:55:15;10.10;;;4.60;;
21444;SDS011;10883;51.946;20.140;2023-06-10T04:57:41;8.93;;;5.10;;
21444;SDS011;10883;51.946;20.140;2023-06-10T05:00:07;8.45;;;4.93;;
21444;SDS011;10883;51.946;20.140;2023-06-10T05:02:33;11.05;;;4.85;;
21444;SDS011;10883;51.946;20.140;2023-06-10T05:04:59;7.22;;;4.40;;
21444;SDS011;10883;51.946;20.140;2023-06-10T05:07:25;8.85;;;4.30;;
21444;SDS011;10883;51.946;20.140;2023-06-10T05:09:51;7.20;;;4.32;;
21444;SDS011;10883;51.946;20.140;2023-06-10T05:12:17;10.60;;;5.43;;
21444;SDS011;10883;51.946;20.140;2023-06-10T05:14:42;8.30;;;4.30;;
21444;SDS011;10883;51.946;20.140;2023-06-10T05:17:09;11.13;;;5.53;;
21444;SDS011;10883;51.946;20.140;2023-06-10T05:19:35;7.03;;;4.93;;
21444;SDS011;10883;51.946;20.140;2023-06-10T05:22:02;7.70;;;4.80;;
21444;SDS011;10883;51.946;20.140;2023-06-10T05:24:28;9.30;;;4.90;;
21444;SDS011;10883;51.946;20.140;2023-06-10T05:26:54;7.70;;;4.25;;
21444;SDS011;10883;51.946;20.140;2023-06-10T05:29:20;7.32;;;4.30;;
21444;SDS011;10883;51.946;20.140;2023-06-10T05:31:46;8.48;;;4.65;;
21444;SDS011;10883;51.946;20.140;2023-06-10T05:34:11;9.30;;;4.65;;
21444;SDS011;10883;51.946;20.140;2023-06-10T05:36:37;8.27;;;4.65;;
21444;SDS011;10883;51.946;20.140;2023-06-10T05:39:03;9.55;;;4.93;;
21444;SDS011;10883;51.946;20.140;2023-06-10T05:41:29;7.85;;;3.92;;
21444;SDS011;10883;51.946;20.140;2023-06-10T05:43:55;7.07;;;4.50;;
21444;SDS011;10883;51.946;20.140;2023-06-10T05:46:21;15.18;;;5.53;;
21444;SDS011;10883;51.946;20.140;2023-06-10T05:48:47;6.90;;;4.78;;
21444;SDS011;10883;51.946;20.140;2023-06-10T05:51:13;8.40;;;4.50;;
21444;SDS011;10883;51.946;20.140;2023-06-10T05:53:38;8.13;;;4.82;;
21444;SDS011;10883;51.946;20.140;2023-06-10T05:56:04;16.48;;;5.28;;
21444;SDS011;10883;51.946;20.140;2023-06-10T05:58:30;7.43;;;4.97;;
21444;SDS011;10883;51.946;20.140;2023-06-10T06:00:56;9.75;;;5.32;;
21444;SDS011;10883;51.946;20.140;2023-06-10T06:03:22;8.32;;;4.28;;
21444;SDS011;10883;51.946;20.140;2023-06-10T06:05:48;8.32;;;4.80;;
21444;SDS011;10883;51.946;20.140;2023-06-10T06:08:13;10.80;;;5.18;;
21444;SDS011;10883;51.946;20.140;2023-06-10T06:10:42;5.93;;;4.30;;
21444;SDS011;10883;51.946;20.140;2023-06-10T06:13:08;7.03;;;4.35;;
21444;SDS011;10883;51.946;20.140;2023-06-10T06:15:34;11.32;;;5.82;;
21444;SDS011;10883;51.946;20.140;2023-06-10T06:17:59;8.68;;;5.07;;
21444;SDS011;10883;51.946;20.140;2023-06-10T06:20:25;8.15;;;5.13;;
21444;SDS011;10883;51.946;20.140;2023-06-10T06:22:51;7.43;;;4.95;;
21444;SDS011;10883;51.946;20.140;2023-06-10T06:25:17;8.50;;;5.35;;
21444;SDS011;10883;51.946;20.140;2023-06-10T06:27:42;8.98;;;5.00;;
21444;SDS011;10883;51.946;20.140;2023-06-10T06:30:08;7.97;;;5.60;;
21444;SDS011;10883;51.946;20.140;2023-06-10T06:32:34;6.50;;;4.70;;
21444;SDS011;10883;51.946;20.140;2023-06-10T06:35:00;7.13;;;4.80;;
21444;SDS011;10883;51.946;20.140;2023-06-10T06:37:26;7.38;;;5.10;;
21444;SDS011;10883;51.946;20.140;2023-06-10T06:39:52;8.40;;;5.38;;
21444;SDS011;10883;51.946;20.140;2023-06-10T06:42:19;9.45;;;5.57;;
21444;SDS011;10883;51.946;20.140;2023-06-10T06:44:46;10.27;;;5.40;;
21444;SDS011;10883;51.946;20.140;2023-06-10T06:47:12;6.25;;;4.70;;
21444;SDS011;10883;51.946;20.140;2023-06-10T06:49:38;7.35;;;5.22;;
21444;SDS011;10883;51.946;20.140;2023-06-10T06:52:04;7.53;;;4.88;;
21444;SDS011;10883;51.946;20.140;2023-06-10T06:54:30;7.25;;;4.57;;
21444;SDS011;10883;51.946;20.140;2023-06-10T06:56:57;7.60;;;4.75;;
21444;SDS011;10883;51.946;20.140;2023-06-10T06:59:22;17.98;;;7.30;;
21444;SDS011;10883;51.946;20.140;2023-06-10T07:01:50;7.70;;;5.05;;
21444;SDS011;10883;51.946;20.140;2023-06-10T07:04:16;8.32;;;5.53;;
21444;SDS011;10883;51.946;20.140;2023-06-10T07:06:42;7.72;;;4.72;;
21444;SDS011;10883;51.946;20.140;2023-06-10T07:09:08;5.88;;;4.65;;
21444;SDS011;10883;51.946;20.140;2023-06-10T07:11:34;12.63;;;5.15;;
21444;SDS011;10883;51.946;20.140;2023-06-10T07:14:00;9.18;;;4.63;;
21444;SDS011;10883;51.946;20.140;2023-06-10T07:16:25;13.00;;;4.93;;
21444;SDS011;10883;51.946;20.140;2023-06-10T07:18:52;5.57;;;4.57;;
21444;SDS011;10883;51.946;20.140;2023-06-10T07:21:18;5.03;;;4.47;;
21444;SDS011;10883;51.946;20.140;2023-06-10T07:23:45;13.30;;;4.63;;
21444;SDS011;10883;51.946;20.140;2023-06-10T07:26:11;6.13;;;4.60;;
21444;SDS011;10883;51.946;20.140;2023-06-10T07:28:41;15.52;;;5.00;;
21444;SDS011;10883;51.946;20.140;2023-06-10T07:31:07;6.05;;;4.32;;
21444;SDS011;10883;51.946;20.140;2023-06-10T07:33:33;7.22;;;4.20;;
21444;SDS011;10883;51.946;20.140;2023-06-10T07:35:59;6.55;;;3.70;;
21444;SDS011;10883;51.946;20.140;2023-06-10T07:38:25;9.02;;;4.45;;
21444;SDS011;10883;51.946;20.140;2023-06-10T07:40:51;17.58;;;5.63;;
21444;SDS011;10883;51.946;20.140;2023-06-10T07:43:17;6.85;;;3.78;;
21444;SDS011;10883;51.946;20.140;2023-06-10T07:45:44;5.78;;;4.18;;
21444;SDS011;10883;51.946;20.140;2023-06-10T07:48:10;8.32;;;4.35;;
21444;SDS011;10883;51.946;20.140;2023-06-10T07:50:36;8.38;;;4.53;;
21444;SDS011;10883;51.946;20.140;2023-06-10T07:53:02;6.32;;;4.22;;
21444;SDS011;10883;51.946;20.140;2023-06-10T07:55:28;6.10;;;4.60;;
21444;SDS011;10883;51.946;20.140;2023-06-10T07:57:54;5.40;;;4.10;;
21444;SDS011;10883;51.946;20.140;2023-06-10T08:00:20;7.43;;;3.90;;
21444;SDS011;10883;51.946;20.140;2023-06-10T08:02:45;4.70;;;3.75;;
21444;SDS011;10883;51.946;20.140;2023-06-10T08:05:12;4.65;;;3.63;;
21444;SDS011;10883;51.946;20.140;2023-06-10T08:07:38;5.18;;;3.90;;
21444;SDS011;10883;51.946;20.140;2023-06-10T08:10:05;5.20;;;3.90;;
21444;SDS011;10883;51.946;20.140;2023-06-10T08:12:32;9.70;;;3.95;;
21444;SDS011;10883;51.946;20.140;2023-06-10T08:14:58;7.80;;;4.57;;
21444;SDS011;10883;51.946;20.140;2023-06-10T08:17:24;9.90;;;4.32;;
21444;SDS011;10883;51.946;20.140;2023-06-10T08:19:50;5.47;;;4.00;;
21444;SDS011;10883;51.946;20.140;2023-06-10T08:22:16;9.68;;;5.05;;
21444;SDS011;10883;51.946;20.140;2023-06-10T08:24:42;5.15;;;3.90;;
21444;SDS011;10883;51.946;20.140;2023-06-10T08:27:08;5.47;;;4.07;;
21444;SDS011;10883;51.946;20.140;2023-06-10T12:28:50;8.95;;;4.18;;
21444;SDS011;10883;51.946;20.140;2023-06-10T12:31:16;7.38;;;3.75;;
21444;SDS011;10883;51.946;20.140;2023-06-10T12:33:43;7.90;;;4.30;;
21444;SDS011;10883;51.946;20.140;2023-06-10T12:36:15;7.18;;;3.65;;
21444;SDS011;10883;51.946;20.140;2023-06-10T12:38:42;9.10;;;4.00;;
21444;SDS011;10883;51.946;20.140;2023-06-10T12:41:09;6.47;;;3.58;;
21444;SDS011;10883;51.946;20.140;2023-06-10T12:43:36;9.45;;;4.22;;
21444;SDS011;10883;51.946;20.140;2023-06-10T12:46:09;12.05;;;3.67;;
21444;SDS011;10883;51.946;20.140;2023-06-10T12:48:43;5.18;;;3.35;;
21444;SDS011;10883;51.946;20.140;2023-06-10T12:51:16;5.63;;;3.38;;
21444;SDS011;10883;51.946;20.140;2023-06-10T12:53:43;7.65;;;3.47;;
21444;SDS011;10883;51.946;20.140;2023-06-10T12:56:09;4.90;;;2.97;;
21444;SDS011;10883;51.946;20.140;2023-06-10T12:58:35;7.63;;;3.55;;
21444;SDS011;10883;51.946;20.140;2023-06-10T13:01:01;6.28;;;3.47;;
21444;SDS011;10883;51.946;20.140;2023-06-10T13:03:26;3.47;;;3.17;;
21444;SDS011;10883;51.946;20.140;2023-06-10T13:05:52;4.30;;;3.20;;
21444;SDS011;10883;51.946;20.140;2023-06-10T13:08:18;5.88;;;3.95;;
21444;SDS011;10883;51.946;20.140;2023-06-10T13:10:44;4.55;;;3.05;;
21444;SDS011;10883;51.946;20.140;2023-06-10T13:13:09;8.50;;;3.40;;
21444;SDS011;10883;51.946;20.140;2023-06-10T13:15:35;6.22;;;3.53;;
21444;SDS011;10883;51.946;20.140;2023-06-10T13:18:01;3.75;;;3.20;;
21444;SDS011;10883;51.946;20.140;2023-06-10T13:20:28;5.25;;;2.97;;
21444;SDS011;10883;51.946;20.140;2023-06-10T13:22:54;7.03;;;3.65;;
21444;SDS011;10883;51.946;20.140;2023-06-10T13:25:20;3.50;;;3.03;;
21444;SDS011;10883;51.946;20.140;2023-06-10T13:27:46;5.32;;;3.08;;
21444;SDS011;10883;51.946;20.140;2023-06-10T13:30:12;3.72;;;3.08;;
21444;SDS011;10883;51.946;20.140;2023-06-10T13:32:38;6.45;;;3.35;;
21444;SDS011;10883;51.946;20.140;2023-06-10T13:35:04;6.43;;;3.10;;
21444;SDS011;10883;51.946;20.140;2023-06-10T13:37:30;5.10;;;3.13;;
21444;SDS011;10883;51.946;20.140;2023-06-10T13:39:56;9.90;;;3.65;;
21444;SDS011;10883;51.946;20.140;2023-06-10T13:42:22;7.55;;;3.03;;
21444;SDS011;10883;51.946;20.140;2023-06-10T13:44:48;7.97;;;3.13;;
21444;SDS011;10883;51.946;20.140;2023-06-10T13:47:14;3.70;;;2.83;;
21444;SDS011;10883;51.946;20.140;2023-06-10T13:49:40;4.28;;;3.47;;
21444;SDS011;10883;51.946;20.140;2023-06-10T13:52:06;3.97;;;3.53;;
21444;SDS011;10883;51.946;20.140;2023-06-10T13:54:33;4.63;;;3.22;;
21444;SDS011;10883;51.946;20.140;2023-06-10T13:57:00;4.82;;;3.45;;
21444;SDS011;10883;51.946;20.140;2023-06-10T13:59:27;6.13;;;3.60;;
21444;SDS011;10883;51.946;20.140;2023-06-10T14:01:52;3.90;;;3.60;;
21444;SDS011;10883;51.946;20.140;2023-06-10T14:04:18;6.18;;;3.63;;
21444;SDS011;10883;51.946;20.140;2023-06-10T14:06:44;5.65;;;4.07;;
21444;SDS011;10883;51.946;20.140;2023-06-10T14:09:10;6.65;;;3.58;;
21444;SDS011;10883;51.946;20.140;2023-06-10T14:11:38;8.40;;;3.45;;
21444;SDS011;10883;51.946;20.140;2023-06-10T14:14:03;8.90;;;4.72;;
21444;SDS011;10883;51.946;20.140;2023-06-10T14:16:29;7.32;;;3.88;;
21444;SDS011;10883;51.946;20.140;2023-06-10T14:18:55;9.50;;;3.55;;
21444;SDS011;10883;51.946;20.140;2023-06-10T14:21:21;6.30;;;3.97;;
21444;SDS011;10883;51.946;20.140;2023-06-10T14:23:46;5.47;;;4.20;;
21444;SDS011;10883;51.946;20.140;2023-06-10T14:26:14;5.15;;;3.72;;
21444;SDS011;10883;51.946;20.140;2023-06-10T14:28:39;5.00;;;3.40;;
21444;SDS011;10883;51.946;20.140;2023-06-10T14:31:05;4.60;;;3.20;;
21444;SDS011;10883;51.946;20.140;2023-06-10T14:33:32;5.38;;;3.58;;
21444;SDS011;10883;51.946;20.140;2023-06-10T14:35:58;3.97;;;3.35;;
21444;SDS011;10883;51.946;20.140;2023-06-10T14:38:24;6.28;;;3.78;;
21444;SDS011;10883;51.946;20.140;2023-06-10T14:40:50;4.80;;;3.60;;
21444;SDS011;10883;51.946;20.140;2023-06-10T14:43:17;7.80;;;3.33;;
21444;SDS011;10883;51.946;20.140;2023-06-10T14:45:43;5.78;;;3.75;;
21444;SDS011;10883;51.946;20.140;2023-06-10T14:48:09;4.85;;;3.65;;
21444;SDS011;10883;51.946;20.140;2023-06-10T14:50:35;5.47;;;3.42;;
21444;SDS011;10883;51.946;20.140;2023-06-10T14:53:02;4.25;;;3.85;;
21444;SDS011;10883;51.946;20.140;2023-06-10T14:55:28;8.38;;;4.10;;
21444;SDS011;10883;51.946;20.140;2023-06-10T14:57:53;8.18;;;3.92;;
21444;SDS011;10883;51.946;20.140;2023-06-10T15:00:21;4.32;;;3.83;;
21444;SDS011;10883;51.946;20.140;2023-06-10T15:02:49;7.35;;;4.22;;
21444;SDS011;10883;51.946;20.140;2023-06-10T15:05:16;18.85;;;4.13;;
21444;SDS011;10883;51.946;20.140;2023-06-10T15:07:42;6.13;;;3.72;;
21444;SDS011;10883;51.946;20.140;2023-06-10T15:10:09;5.47;;;4.03;;
21444;SDS011;10883;51.946;20.140;2023-06-10T15:12:35;7.00;;;3.88;;
21444;SDS011;10883;51.946;20.140;2023-06-10T15:15:01;5.28;;;4.03;;
21444;SDS011;10883;51.946;20.140;2023-06-10T15:17:28;6.70;;;3.47;;
21444;SDS011;10883;51.946;20.140;2023-06-10T15:19:54;5.88;;;3.72;;
21444;SDS011;10883;51.946;20.140;2023-06-10T15:22:21;4.05;;;3.47;;
21444;SDS011;10883;51.946;20.140;2023-06-10T15:24:46;7.07;;;4.20;;
21444;SDS011;10883;51.946;20.140;2023-06-10T15:27:12;6.10;;;3.58;;
21444;SDS011;10883;51.946;20.140;2023-06-10T15:29:38;6.00;;;3.70;;
21444;SDS011;10883;51.946;20.140;2023-06-10T15:32:05;4.88;;;4.07;;
21444;SDS011;10883;51.946;20.140;2023-06-10T15:34:31;6.70;;;3.45;;
21444;SDS011;10883;51.946;20.140;2023-06-10T15:36:56;8.55;;;3.72;;
21444;SDS011;10883;51.946;20.140;2023-06-10T15:39:22;8.52;;;4.97;;
21444;SDS011;10883;51.946;20.140;2023-06-10T15:41:49;6.22;;;4.50;;
21444;SDS011;10883;51.946;20.140;2023-06-10T15:44:15;7.38;;;4.45;;
21444;SDS011;10883;51.946;20.140;2023-06-10T15:46:41;10.07;;;4.22;;
21444;SDS011;10883;51.946;20.140;2023-06-10T15:49:07;5.32;;;4.00;;
21444;SDS011;10883;51.946;20.140;2023-06-10T15:51:33;5.07;;;3.75;;
21444;SDS011;10883;51.946;20.140;2023-06-10T15:53:59;5.38;;;3.53;;
21444;SDS011;10883;51.946;20.140;2023-06-10T15:56:25;7.05;;;4.95;;
21444;SDS011;10883;51.946;20.140;2023-06-10T15:58:51;6.45;;;4.30;;
21444;SDS011;10883;51.946;20.140;2023-06-10T16:01:17;6.35;;;4.40;;
21444;SDS011;10883;51.946;20.140;2023-06-10T16:03:43;7.05;;;4.13;;
21444;SDS011;10883;51.946;20.140;2023-06-10T16:06:08;13.02;;;4.75;;
21444;SDS011;10883;51.946;20.140;2023-06-10T16:08:34;8.68;;;4.75;;
21444;SDS011;10883;51.946;20.140;2023-06-10T16:11:00;6.13;;;4.40;;
21444;SDS011;10883;51.946;20.140;2023-06-10T16:13:27;5.97;;;4.30;;
21444;SDS011;10883;51.946;20.140;2023-06-10T16:15:52;5.10;;;4.28;;
21444;SDS011;10883;51.946;20.140;2023-06-10T16:18:18;5.95;;;4.10;;
21444;SDS011;10883;51.946;20.140;2023-06-10T16:20:44;6.00;;;3.88;;
21444;SDS011;10883;51.946;20.140;2023-06-10T16:23:10;4.72;;;3.70;;
21444;SDS011;10883;51.946;20.140;2023-06-10T16:25:35;9.43;;;3.92;;
21444;SDS011;10883;51.946;20.140;2023-06-10T16:28:03;10.95;;;4.70;;
21444;SDS011;10883;51.946;20.140;2023-06-10T16:30:30;10.18;;;4.32;;
21444;SDS011;10883;51.946;20.140;2023-06-10T16:32:57;7.32;;;4.60;;
21444;SDS011;10883;51.946;20.140;2023-06-10T16:35:23;7.15;;;5.32;;
21444;SDS011;10883;51.946;20.140;2023-06-10T16:37:49;7.22;;;5.10;;
21444;SDS011;10883;51.946;20.140;2023-06-10T16:40:15;7.90;;;5.10;;
21444;SDS011;10883;51.946;20.140;2023-06-10T16:42:41;5.28;;;4.65;;
21444;SDS011;10883;51.946;20.140;2023-06-10T16:45:07;8.38;;;5.10;;
21444;SDS011;10883;51.946;20.140;2023-06-10T16:47:33;9.05;;;6.35;;
21444;SDS011;10883;51.946;20.140;2023-06-10T16:49:59;7.88;;;5.28;;
21444;SDS011;10883;51.946;20.140;2023-06-10T16:52:25;10.63;;;5.70;;
21444;SDS011;10883;51.946;20.140;2023-06-10T16:54:50;6.93;;;5.00;;
21444;SDS011;10883;51.946;20.140;2023-06-10T16:57:16;11.63;;;6.05;;
21444;SDS011;10883;51.946;20.140;2023-06-10T16:59:42;9.35;;;5.80;;
21444;SDS011;10883;51.946;20.140;2023-06-10T17:02:08;8.25;;;4.55;;
21444;SDS011;10883;51.946;20.140;2023-06-10T17:04:34;7.88;;;5.97;;
21444;SDS011;10883;51.946;20.140;2023-06-10T17:06:59;9.40;;;5.47;;
21444;SDS011;10883;51.946;20.140;2023-06-10T17:09:25;8.60;;;5.20;;
21444;SDS011;10883;51.946;20.140;2023-06-10T17:11:51;9.95;;;5.25;;
21444;SDS011;10883;51.946;20.140;2023-06-10T17:14:17;9.15;;;5.57;;
21444;SDS011;10883;51.946;20.140;2023-06-10T17:16:43;7.93;;;5.40;;
21444;SDS011;10883;51.946;20.140;2023-06-10T17:19:10;8.52;;;6.03;;
21444;SDS011;10883;51.946;20.140;2023-06-10T17:21:35;7.90;;;5.78;;
21444;SDS011;10883;51.946;20.140;2023-06-10T17:24:01;10.45;;;5.63;;
21444;SDS011;10883;51.946;20.140;2023-06-10T17:26:27;11.20;;;5.65;;
21444;SDS011;10883;51.946;20.140;2023-06-10T17:28:53;8.20;;;6.00;;
21444;SDS011;10883;51.946;20.140;2023-06-10T17:43:33;11.00;;;6.45;;
21444;SDS011;10883;51.946;20.140;2023-06-10T17:45:59;9.65;;;6.63;;
21444;SDS011;10883;51.946;20.140;2023-06-10T17:48:25;9.40;;;5.88;;
21444;SDS011;10883;51.946;20.140;2023-06-10T17:50:51;10.98;;;6.15;;
21444;SDS011;10883;51.946;20.140;2023-06-10T17:53:16;9.50;;;5.70;;
21444;SDS011;10883;51.946;20.140;2023-06-10T17:55:42;11.55;;;6.68;;
21444;SDS011;10883;51.946;20.140;2023-06-10T17:58:08;7.63;;;6.22;;
21444;SDS011;10883;51.946;20.140;2023-06-10T18:00:34;11.00;;;6.13;;
21444;SDS011;10883;51.946;20.140;2023-06-10T18:02:59;8.93;;;6.63;;
21444;SDS011;10883;51.946;20.140;2023-06-10T18:05:25;11.52;;;6.30;;
21444;SDS011;10883;51.946;20.140;2023-06-10T18:07:51;11.40;;;6.55;;
21444;SDS011;10883;51.946;20.140;2023-06-10T18:10:17;9.50;;;6.57;;
21444;SDS011;10883;51.946;20.140;2023-06-10T18:12:43;10.25;;;6.65;;
21444;SDS011;10883;51.946;20.140;2023-06-10T18:15:08;12.45;;;8.20;;
21444;SDS011;10883;51.946;20.140;2023-06-10T18:17:35;12.43;;;7.90;;
21444;SDS011;10883;51.946;20.140;2023-06-10T18:20:04;12.63;;;7.68;;
21444;SDS011;10883;51.946;20.140;2023-06-10T18:22:30;9.82;;;6.97;;
21444;SDS011;10883;51.946;20.140;2023-06-10T18:24:56;15.60;;;7.78;;
21444;SDS011;10883;51.946;20.140;2023-06-10T18:27:22;10.93;;;8.02;;
21444;SDS011;10883;51.946;20.140;2023-06-10T18:29:48;10.50;;;7.32;;
21444;SDS011;10883;51.946;20.140;2023-06-10T18:32:15;12.68;;;7.50;;
21444;SDS011;10883;51.946;20.140;2023-06-10T18:34:41;9.82;;;7.20;;
21444;SDS011;10883;51.946;20.140;2023-06-10T18:37:07;14.20;;;6.95;;
21444;SDS011;10883;51.946;20.140;2023-06-10T18:39:33;12.05;;;7.10;;